createdAt,value
2019-05-21T00:00:58.000Z,92.51
2019-05-21T00:01:58.000Z,92.39
2019-05-21T00:02:58.000Z,92.67
2019-05-21T00:03:58.000Z,92.36
2019-05-21T00:04:58.000Z,92.44
2019-05-21T00:05:58.000Z,92.88
2019-05-21T00:06:58.000Z,92.89
2019-05-21T00:07:58.000Z,92.89
2019-05-21T00:08:58.000Z,93.12
2019-05-21T00:09:58.000Z,93.14
2019-05-21T00:10:58.000Z,93.01
2019-05-21T00:11:58.000Z,93.04
2019-05-21T00:12:58.000Z,92.76
2019-05-21T00:13:58.000Z,92.23
2019-05-21T00:14:58.000Z,92.17
2019-05-21T00:15:58.000Z,92.89
2019-05-21T00:16:58.000Z,92.50
2019-05-21T00:17:58.000Z,92.27
2019-05-21T00:18:58.000Z,92.24
2019-05-21T00:19:58.000Z,92.56
2019-05-21T00:20:58.000Z,92.51
2019-05-21T00:21:58.000Z,92.34
2019-05-21T00:22:58.000Z,92.92
2019-05-21T00:23:58.000Z,92.28
2019-05-21T00:24:58.000Z,92.29
2019-05-21T00:25:58.000Z,92.38
2019-05-21T00:26:58.000Z,92.34
2019-05-21T00:27:58.000Z,92.28
2019-05-21T00:28:58.000Z,92.36
2019-05-21T00:29:58.000Z,92.35
2019-05-21T00:30:58.000Z,92.21
2019-05-21T00:31:58.000Z,91.74
2019-05-21T00:32:58.000Z,91.82
2019-05-21T00:33:58.000Z,92.14
2019-05-21T00:34:58.000Z,92.10
2019-05-21T00:35:58.000Z,92.04
2019-05-21T00:36:58.000Z,92.29
2019-05-21T00:37:58.000Z,92.18
2019-05-21T00:38:58.000Z,92.01
2019-05-21T00:39:58.000Z,92.12
2019-05-21T00:40:58.000Z,92.19
2019-05-21T00:41:58.000Z,92.30
2019-05-21T00:42:58.000Z,92.10
2019-05-21T00:43:58.000Z,92.70
2019-05-21T00:44:58.000Z,92.43
2019-05-21T00:45:58.000Z,92.42
2019-05-21T00:46:58.000Z,92.93
2019-05-21T00:47:58.000Z,92.37
2019-05-21T00:48:58.000Z,92.17
2019-05-21T00:49:58.000Z,92.61
2019-05-21T00:50:58.000Z,92.37
2019-05-21T00:51:58.000Z,92.52
2019-05-21T00:52:58.000Z,93.02
2019-05-21T00:53:58.000Z,92.65
2019-05-21T00:54:58.000Z,92.52
2019-05-21T00:55:58.000Z,92.14
2019-05-21T00:56:58.000Z,92.20
2019-05-21T00:57:58.000Z,92.53
2019-05-21T00:58:58.000Z,92.66
2019-05-21T00:59:58.000Z,92.74
2019-05-21T01:00:58.000Z,92.57
2019-05-21T01:01:58.000Z,92.28
2019-05-21T01:02:59.000Z,92.54
2019-05-21T01:03:58.000Z,92.44
2019-05-21T01:04:58.000Z,92.46
2019-05-21T01:05:58.000Z,92.31
2019-05-21T01:06:58.000Z,92.78
2019-05-21T01:07:58.000Z,92.37
2019-05-21T01:08:58.000Z,92.27
2019-05-21T01:09:58.000Z,92.20
2019-05-21T01:10:58.000Z,92.41
2019-05-21T01:11:58.000Z,92.68
2019-05-21T01:12:58.000Z,92.62
2019-05-21T01:13:58.000Z,92.48
2019-05-21T01:14:58.000Z,92.40
2019-05-21T01:15:58.000Z,93.37
2019-05-21T01:16:58.000Z,92.56
2019-05-21T01:17:58.000Z,92.43
2019-05-21T01:18:58.000Z,92.70
2019-05-21T01:19:58.000Z,92.56
2019-05-21T01:20:58.000Z,93.03
2019-05-21T01:21:58.000Z,92.19
2019-05-21T01:22:58.000Z,92.46
2019-05-21T01:23:58.000Z,92.31
2019-05-21T01:24:58.000Z,92.13
2019-05-21T01:25:58.000Z,92.50
2019-05-21T01:26:58.000Z,92.28
2019-05-21T01:27:58.000Z,92.44
2019-05-21T01:28:58.000Z,92.33
2019-05-21T01:29:58.000Z,92.90
2019-05-21T01:30:58.000Z,92.34
2019-05-21T01:31:58.000Z,92.44
2019-05-21T01:32:58.000Z,92.61
2019-05-21T01:33:58.000Z,92.63
2019-05-21T01:34:58.000Z,92.29
2019-05-21T01:35:58.000Z,92.35
2019-05-21T01:36:58.000Z,92.12
2019-05-21T01:37:58.000Z,92.31
2019-05-21T01:38:58.000Z,92.02
2019-05-21T01:39:58.000Z,92.22
2019-05-21T01:40:58.000Z,91.95
2019-05-21T01:41:58.000Z,92.13
2019-05-21T01:42:58.000Z,92.04
2019-05-21T01:43:58.000Z,92.05
2019-05-21T01:44:58.000Z,92.07
2019-05-21T01:45:58.000Z,91.84
2019-05-21T01:46:59.000Z,91.72
2019-05-21T01:47:58.000Z,91.96
2019-05-21T01:48:58.000Z,91.97
2019-05-21T01:49:58.000Z,92.36
2019-05-21T01:50:58.000Z,92.23
2019-05-21T01:51:58.000Z,91.89
2019-05-21T01:52:58.000Z,91.99
2019-05-21T01:53:58.000Z,91.77
2019-05-21T01:54:58.000Z,92.43
2019-05-21T01:55:58.000Z,92.21
2019-05-21T01:56:58.000Z,91.85
2019-05-21T01:57:58.000Z,92.07
2019-05-21T01:58:58.000Z,91.93
2019-05-21T01:59:58.000Z,91.85
2019-05-21T02:00:58.000Z,91.80
2019-05-21T02:01:58.000Z,91.81
2019-05-21T02:02:58.000Z,91.87
2019-05-21T02:03:58.000Z,91.94
2019-05-21T02:04:58.000Z,91.87
2019-05-21T02:05:58.000Z,92.34
2019-05-21T02:06:58.000Z,92.27
2019-05-21T02:07:58.000Z,92.05
2019-05-21T02:08:58.000Z,92.03
2019-05-21T02:09:58.000Z,92.11
2019-05-21T02:10:58.000Z,92.02
2019-05-21T02:11:58.000Z,91.90
2019-05-21T02:12:58.000Z,92.39
2019-05-21T02:13:58.000Z,92.01
2019-05-21T02:14:58.000Z,92.17
2019-05-21T02:15:58.000Z,92.12
2019-05-21T02:16:58.000Z,92.03
2019-05-21T02:17:58.000Z,92.09
2019-05-21T02:18:58.000Z,92.00
2019-05-21T02:19:58.000Z,91.71
2019-05-21T02:20:58.000Z,91.83
2019-05-21T02:21:58.000Z,91.84
2019-05-21T02:22:58.000Z,91.78
2019-05-21T02:23:58.000Z,91.96
2019-05-21T02:24:58.000Z,92.20
2019-05-21T02:25:58.000Z,92.20
2019-05-21T02:26:58.000Z,91.97
2019-05-21T02:27:58.000Z,91.78
2019-05-21T02:28:58.000Z,91.60
2019-05-21T02:29:58.000Z,91.74
2019-05-21T02:30:58.000Z,91.60
2019-05-21T02:31:58.000Z,91.47
2019-05-21T02:32:58.000Z,92.15
2019-05-21T02:33:58.000Z,91.93
2019-05-21T02:34:58.000Z,91.66
2019-05-21T02:35:58.000Z,91.73
2019-05-21T02:36:58.000Z,91.66
2019-05-21T02:37:58.000Z,91.97
2019-05-21T02:38:58.000Z,91.73
2019-05-21T02:39:58.000Z,91.52
2019-05-21T02:40:58.000Z,91.76
2019-05-21T02:41:58.000Z,91.69
2019-05-21T02:42:58.000Z,91.92
2019-05-21T02:43:58.000Z,91.63
2019-05-21T02:44:58.000Z,91.78
2019-05-21T02:45:58.000Z,91.87
2019-05-21T02:46:58.000Z,92.17
2019-05-21T02:47:58.000Z,91.85
2019-05-21T02:48:58.000Z,91.90
2019-05-21T02:49:58.000Z,91.47
2019-05-21T02:50:58.000Z,91.76
2019-05-21T02:51:58.000Z,91.79
2019-05-21T02:52:58.000Z,91.63
2019-05-21T02:53:58.000Z,91.96
2019-05-21T02:54:58.000Z,91.83
2019-05-21T02:55:58.000Z,91.72
2019-05-21T02:56:58.000Z,91.64
2019-05-21T02:57:58.000Z,91.25
2019-05-21T02:58:58.000Z,91.14
2019-05-21T02:59:58.000Z,91.33
2019-05-21T03:00:58.000Z,91.22
2019-05-21T03:01:58.000Z,91.25
2019-05-21T03:02:58.000Z,91.05
2019-05-21T03:03:58.000Z,91.22
2019-05-21T03:04:58.000Z,91.09
2019-05-21T03:05:58.000Z,91.08
2019-05-21T03:06:58.000Z,90.85
2019-05-21T03:07:58.000Z,90.71
2019-05-21T03:08:58.000Z,91.12
2019-05-21T03:09:58.000Z,91.51
2019-05-21T03:10:58.000Z,91.21
2019-05-21T03:11:58.000Z,90.76
2019-05-21T03:12:58.000Z,90.73
2019-05-21T03:13:58.000Z,90.67
2019-05-21T03:14:58.000Z,90.85
2019-05-21T03:15:58.000Z,90.97
2019-05-21T03:16:58.000Z,90.90
2019-05-21T03:17:58.000Z,91.03
2019-05-21T03:18:58.000Z,90.96
2019-05-21T03:19:58.000Z,90.88
2019-05-21T03:20:58.000Z,90.86
2019-05-21T03:21:58.000Z,91.23
2019-05-21T03:22:58.000Z,91.21
2019-05-21T03:23:58.000Z,91.23
2019-05-21T03:24:58.000Z,91.40
2019-05-21T03:25:58.000Z,91.19
2019-05-21T03:26:58.000Z,90.75
2019-05-21T03:27:58.000Z,90.61
2019-05-21T03:28:58.000Z,90.80
2019-05-21T03:29:58.000Z,90.96
2019-05-21T03:30:58.000Z,91.30
2019-05-21T03:31:58.000Z,91.24
2019-05-21T03:32:58.000Z,90.72
2019-05-21T03:33:58.000Z,90.73
2019-05-21T03:34:58.000Z,90.62
2019-05-21T03:35:58.000Z,90.81
2019-05-21T03:36:58.000Z,90.95
2019-05-21T03:37:58.000Z,90.62
2019-05-21T03:38:58.000Z,90.67
2019-05-21T03:39:58.000Z,90.42
2019-05-21T03:40:58.000Z,90.52
2019-05-21T03:41:58.000Z,90.45
2019-05-21T03:42:58.000Z,90.36
2019-05-21T03:43:58.000Z,90.32
2019-05-21T03:44:58.000Z,90.30
2019-05-21T03:45:58.000Z,90.40
2019-05-21T03:46:58.000Z,89.85
2019-05-21T03:47:58.000Z,89.92
2019-05-21T03:48:58.000Z,89.87
2019-05-21T03:49:58.000Z,89.93
2019-05-21T03:50:58.000Z,89.71
2019-05-21T03:51:58.000Z,89.72
2019-05-21T03:52:58.000Z,89.87
2019-05-21T03:53:58.000Z,89.77
2019-05-21T03:54:58.000Z,89.83
2019-05-21T03:55:58.000Z,89.93
2019-05-21T03:56:58.000Z,90.16
2019-05-21T03:57:58.000Z,90.15
2019-05-21T03:58:58.000Z,90.01
2019-05-21T03:59:58.000Z,89.78
2019-05-21T04:00:58.000Z,89.63
2019-05-21T04:01:58.000Z,89.65
2019-05-21T04:02:58.000Z,89.55
2019-05-21T04:03:58.000Z,89.79
2019-05-21T04:04:58.000Z,89.85
2019-05-21T04:05:58.000Z,89.63
2019-05-21T04:06:58.000Z,89.66
2019-05-21T04:07:58.000Z,89.94
2019-05-21T04:08:58.000Z,89.82
2019-05-21T04:09:58.000Z,89.72
2019-05-21T04:10:58.000Z,89.95
2019-05-21T04:11:58.000Z,90.31
2019-05-21T04:12:58.000Z,90.24
2019-05-21T04:13:58.000Z,90.21
2019-05-21T04:14:58.000Z,90.20
2019-05-21T04:15:58.000Z,90.28
2019-05-21T04:16:58.000Z,90.12
2019-05-21T04:17:58.000Z,90.20
2019-05-21T04:18:58.000Z,90.54
2019-05-21T04:19:58.000Z,90.50
2019-05-21T04:20:58.000Z,90.47
2019-05-21T04:21:58.000Z,90.43
2019-05-21T04:22:58.000Z,91.05
2019-05-21T04:23:58.000Z,91.10
2019-05-21T04:24:58.000Z,90.98
2019-05-21T04:25:58.000Z,90.92
2019-05-21T04:26:58.000Z,90.72
2019-05-21T04:27:58.000Z,91.30
2019-05-21T04:28:58.000Z,91.22
2019-05-21T04:29:58.000Z,91.41
2019-05-21T04:30:58.000Z,91.90
2019-05-21T04:31:58.000Z,91.89
2019-05-21T04:32:58.000Z,91.98
2019-05-21T04:33:58.000Z,92.16
2019-05-21T04:34:58.000Z,92.19
2019-05-21T04:35:58.000Z,92.39
2019-05-21T04:36:58.000Z,92.87
2019-05-21T04:37:58.000Z,92.66
2019-05-21T04:38:58.000Z,92.63
2019-05-21T04:39:59.000Z,92.79
2019-05-21T04:40:58.000Z,92.54
2019-05-21T04:41:58.000Z,92.91
2019-05-21T04:42:58.000Z,93.01
2019-05-21T04:43:58.000Z,93.03
2019-05-21T04:44:58.000Z,93.23
2019-05-21T04:45:58.000Z,93.54
2019-05-21T04:46:58.000Z,93.08
2019-05-21T04:47:58.000Z,93.98
2019-05-21T04:48:58.000Z,94.11
2019-05-21T04:49:58.000Z,94.30
2019-05-21T04:50:58.000Z,94.15
2019-05-21T04:51:58.000Z,94.12
2019-05-21T04:52:58.000Z,94.61
2019-05-21T04:53:58.000Z,94.69
2019-05-21T04:54:58.000Z,94.48
2019-05-21T04:55:58.000Z,94.12
2019-05-21T04:56:58.000Z,94.27
2019-05-21T04:57:58.000Z,94.55
2019-05-21T04:58:58.000Z,94.62
2019-05-21T04:59:58.000Z,95.03
2019-05-21T05:00:59.000Z,95.14
2019-05-21T05:01:58.000Z,94.94
2019-05-21T05:02:58.000Z,94.74
2019-05-21T05:03:58.000Z,94.88
2019-05-21T05:04:58.000Z,95.20
2019-05-21T05:05:58.000Z,95.10
2019-05-21T05:06:58.000Z,94.59
2019-05-21T05:07:58.000Z,94.83
2019-05-21T05:08:58.000Z,94.82
2019-05-21T05:09:58.000Z,94.39
2019-05-21T05:10:58.000Z,94.67
2019-05-21T05:11:58.000Z,94.62
2019-05-21T05:12:58.000Z,94.84
2019-05-21T05:13:58.000Z,94.96
2019-05-21T05:14:58.000Z,94.58
2019-05-21T05:15:58.000Z,94.91
2019-05-21T05:16:58.000Z,95.04
2019-05-21T05:17:58.000Z,95.36
2019-05-21T05:18:58.000Z,95.50
2019-05-21T05:19:58.000Z,95.15
2019-05-21T05:20:58.000Z,94.96
2019-05-21T05:21:58.000Z,95.02
2019-05-21T05:22:58.000Z,95.42
2019-05-21T05:23:58.000Z,95.33
2019-05-21T05:24:58.000Z,95.08
2019-05-21T05:25:58.000Z,95.51
2019-05-21T05:26:58.000Z,95.30
2019-05-21T05:27:58.000Z,95.41
2019-05-21T05:28:58.000Z,95.44
2019-05-21T05:29:58.000Z,95.49
2019-05-21T05:30:58.000Z,95.70
2019-05-21T05:31:58.000Z,95.68
2019-05-21T05:32:58.000Z,95.30
2019-05-21T05:33:58.000Z,95.31
2019-05-21T05:34:58.000Z,95.80
2019-05-21T05:35:58.000Z,95.86
2019-05-21T05:36:58.000Z,95.95
2019-05-21T05:37:58.000Z,95.88
2019-05-21T05:38:58.000Z,95.88
2019-05-21T05:39:58.000Z,96.09
2019-05-21T05:40:58.000Z,96.29
2019-05-21T05:41:58.000Z,96.37
2019-05-21T05:42:58.000Z,97.03
2019-05-21T05:43:58.000Z,97.33
2019-05-21T05:44:59.000Z,97.33
2019-05-21T05:45:58.000Z,97.00
2019-05-21T05:46:58.000Z,96.67
2019-05-21T05:47:58.000Z,97.04
2019-05-21T05:48:58.000Z,97.12
2019-05-21T05:49:58.000Z,96.74
2019-05-21T05:50:58.000Z,97.39
2019-05-21T05:51:58.000Z,96.65
2019-05-21T05:52:58.000Z,96.93
2019-05-21T05:53:58.000Z,97.10
2019-05-21T05:54:58.000Z,97.32
2019-05-21T05:55:58.000Z,97.12
2019-05-21T05:56:58.000Z,97.05
2019-05-21T05:57:58.000Z,97.18
2019-05-21T05:58:58.000Z,97.15
2019-05-21T05:59:58.000Z,97.29
2019-05-21T06:00:58.000Z,97.91
2019-05-21T06:01:58.000Z,97.59
2019-05-21T06:02:58.000Z,97.42
2019-05-21T06:03:58.000Z,97.31
2019-05-21T06:04:58.000Z,97.79
2019-05-21T06:05:58.000Z,98.04
2019-05-21T06:06:58.000Z,97.84
2019-05-21T06:07:58.000Z,97.85
2019-05-21T06:08:58.000Z,98.04
2019-05-21T06:09:58.000Z,98.46
2019-05-21T06:10:58.000Z,98.15
2019-05-21T06:11:58.000Z,98.23
2019-05-21T06:12:58.000Z,98.17
2019-05-21T06:13:58.000Z,98.34
2019-05-21T06:14:58.000Z,98.54
2019-05-21T06:15:58.000Z,98.47
2019-05-21T06:16:58.000Z,98.37
2019-05-21T06:17:58.000Z,98.28
2019-05-21T06:18:58.000Z,98.07
2019-05-21T06:19:58.000Z,98.26
2019-05-21T06:20:58.000Z,98.27
2019-05-21T06:21:58.000Z,98.38
2019-05-21T06:22:58.000Z,98.36
2019-05-21T06:23:58.000Z,98.39
2019-05-21T06:24:58.000Z,98.85
2019-05-21T06:25:58.000Z,98.85
2019-05-21T06:26:58.000Z,98.77
2019-05-21T06:27:58.000Z,98.79
2019-05-21T06:28:58.000Z,98.73
2019-05-21T06:29:58.000Z,99.04
2019-05-21T06:30:58.000Z,98.70
2019-05-21T06:31:58.000Z,98.80
2019-05-21T06:32:58.000Z,98.71
2019-05-21T06:33:58.000Z,98.72
2019-05-21T06:34:58.000Z,98.67
2019-05-21T06:35:58.000Z,98.45
2019-05-21T06:36:58.000Z,98.79
2019-05-21T06:37:58.000Z,98.75
2019-05-21T06:38:58.000Z,98.80
2019-05-21T06:39:58.000Z,98.89
2019-05-21T06:40:58.000Z,99.05
2019-05-21T06:41:58.000Z,98.75
2019-05-21T06:42:58.000Z,99.02
2019-05-21T06:43:58.000Z,99.03
2019-05-21T06:44:58.000Z,99.10
2019-05-21T06:45:58.000Z,98.83
2019-05-21T06:46:58.000Z,98.89
2019-05-21T06:47:58.000Z,98.91
2019-05-21T06:48:58.000Z,98.97
2019-05-21T06:49:58.000Z,98.69
2019-05-21T06:50:58.000Z,99.18
2019-05-21T06:51:58.000Z,99.00
2019-05-21T06:52:58.000Z,99.04
2019-05-21T06:53:58.000Z,98.92
2019-05-21T06:54:58.000Z,98.86
2019-05-21T06:55:58.000Z,99.05
2019-05-21T06:56:58.000Z,99.00
2019-05-21T06:57:58.000Z,99.13
2019-05-21T06:58:58.000Z,98.87
2019-05-21T06:59:58.000Z,98.81
2019-05-21T07:00:58.000Z,98.96
2019-05-21T07:01:58.000Z,98.90
2019-05-21T07:02:58.000Z,98.86
2019-05-21T07:03:58.000Z,98.99
2019-05-21T07:04:58.000Z,99.24
2019-05-21T07:05:58.000Z,99.05
2019-05-21T07:06:58.000Z,98.84
2019-05-21T07:07:58.000Z,98.78
2019-05-21T07:08:58.000Z,98.80
2019-05-21T07:09:58.000Z,99.12
2019-05-21T07:10:58.000Z,99.05
2019-05-21T07:11:59.000Z,99.16
2019-05-21T07:12:58.000Z,99.08
2019-05-21T07:13:58.000Z,98.98
2019-05-21T07:14:58.000Z,98.86
2019-05-21T07:15:58.000Z,99.15
2019-05-21T07:16:58.000Z,99.22
2019-05-21T07:17:58.000Z,98.94
2019-05-21T07:18:58.000Z,98.91
2019-05-21T07:19:58.000Z,98.88
2019-05-21T07:20:58.000Z,99.04
2019-05-21T07:21:58.000Z,99.12
2019-05-21T07:22:58.000Z,98.98
2019-05-21T07:23:58.000Z,98.95
2019-05-21T07:24:58.000Z,99.28
2019-05-21T07:25:58.000Z,99.37
2019-05-21T07:26:58.000Z,99.02
2019-05-21T07:27:58.000Z,99.12
2019-05-21T07:28:58.000Z,99.21
2019-05-21T07:29:58.000Z,99.18
2019-05-21T07:30:58.000Z,99.37
2019-05-21T07:31:58.000Z,99.16
2019-05-21T07:32:58.000Z,99.39
2019-05-21T07:33:58.000Z,99.47
2019-05-21T07:34:58.000Z,99.19
2019-05-21T07:35:58.000Z,99.27
2019-05-21T07:36:58.000Z,99.12
2019-05-21T07:37:58.000Z,99.16
2019-05-21T07:38:58.000Z,99.25
2019-05-21T07:39:58.000Z,99.35
2019-05-21T07:40:58.000Z,99.33
2019-05-21T07:41:58.000Z,99.25
2019-05-21T07:42:58.000Z,99.18
2019-05-21T07:43:58.000Z,99.12
2019-05-21T07:44:58.000Z,99.23
2019-05-21T07:45:58.000Z,99.65
2019-05-21T07:46:58.000Z,99.84
2019-05-21T07:47:58.000Z,99.58
2019-05-21T07:48:58.000Z,99.57
2019-05-21T07:49:58.000Z,99.41
2019-05-21T07:50:58.000Z,99.32
2019-05-21T07:51:58.000Z,99.52
2019-05-21T07:52:58.000Z,99.51
2019-05-21T07:53:58.000Z,99.40
2019-05-21T07:54:58.000Z,99.29
2019-05-21T07:55:58.000Z,99.33
2019-05-21T07:56:58.000Z,99.39
2019-05-21T07:57:58.000Z,99.43
2019-05-21T07:58:58.000Z,99.38
2019-05-21T07:59:58.000Z,99.50
2019-05-21T08:00:58.000Z,99.93
2019-05-21T08:01:58.000Z,100.00
2019-05-21T08:02:58.000Z,100.00
2019-05-21T08:03:58.000Z,100.00
2019-05-21T08:04:58.000Z,100.00
2019-05-21T08:05:58.000Z,100.00
2019-05-21T08:06:58.000Z,100.00
2019-05-21T08:07:58.000Z,100.00
2019-05-21T08:08:58.000Z,100.00
2019-05-21T08:09:58.000Z,100.00
2019-05-21T08:10:58.000Z,100.00
2019-05-21T08:11:58.000Z,100.00
2019-05-21T08:12:58.000Z,100.00
2019-05-21T08:13:58.000Z,100.00
2019-05-21T08:14:58.000Z,100.00
2019-05-21T08:15:58.000Z,99.92
2019-05-21T08:16:58.000Z,99.76
2019-05-21T08:17:58.000Z,100.00
2019-05-21T08:18:58.000Z,100.00
2019-05-21T08:19:58.000Z,99.81
2019-05-21T08:20:58.000Z,100.00
2019-05-21T08:21:58.000Z,99.76
2019-05-21T08:22:58.000Z,99.65
2019-05-21T08:23:58.000Z,99.83
2019-05-21T08:24:58.000Z,99.86
2019-05-21T08:25:58.000Z,100.00
2019-05-21T08:26:58.000Z,100.00
2019-05-21T08:27:58.000Z,100.00
2019-05-21T08:28:58.000Z,100.00
2019-05-21T08:29:58.000Z,100.00
2019-05-21T08:30:58.000Z,100.00
2019-05-21T08:31:58.000Z,100.00
2019-05-21T08:32:58.000Z,100.00
2019-05-21T08:33:58.000Z,100.00
2019-05-21T08:34:58.000Z,100.00
2019-05-21T08:35:58.000Z,100.00
2019-05-21T08:36:58.000Z,100.00
2019-05-21T08:37:58.000Z,100.00
2019-05-21T08:38:58.000Z,100.00
2019-05-21T08:39:58.000Z,99.87
2019-05-21T08:40:58.000Z,100.00
2019-05-21T08:41:58.000Z,100.00
2019-05-21T08:42:58.000Z,100.00
2019-05-21T08:43:58.000Z,100.00
2019-05-21T08:44:58.000Z,100.00
2019-05-21T08:45:58.000Z,100.00
2019-05-21T08:46:58.000Z,100.00
2019-05-21T08:47:58.000Z,100.00
2019-05-21T08:48:58.000Z,100.00
2019-05-21T08:49:58.000Z,100.00
2019-05-21T08:50:58.000Z,100.00
2019-05-21T08:51:58.000Z,100.00
2019-05-21T08:52:58.000Z,100.00
2019-05-21T08:53:58.000Z,100.00
2019-05-21T08:54:58.000Z,100.00
2019-05-21T08:55:58.000Z,100.00
2019-05-21T08:56:58.000Z,100.00
2019-05-21T08:57:58.000Z,100.00
2019-05-21T08:58:58.000Z,100.00
2019-05-21T08:59:58.000Z,100.00
2019-05-21T09:00:58.000Z,100.00
2019-05-21T09:01:58.000Z,100.00
2019-05-21T09:02:58.000Z,100.00
2019-05-21T09:03:58.000Z,100.00
2019-05-21T09:04:58.000Z,100.00
2019-05-21T09:05:58.000Z,100.00
2019-05-21T09:06:58.000Z,100.00
2019-05-21T09:07:58.000Z,99.84
2019-05-21T09:08:58.000Z,99.76
2019-05-21T09:09:58.000Z,99.82
2019-05-21T09:10:58.000Z,100.00
2019-05-21T09:11:58.000Z,100.00
2019-05-21T09:12:58.000Z,100.00
2019-05-21T09:13:58.000Z,100.00
2019-05-21T09:14:57.000Z,100.00
2019-05-21T09:15:57.000Z,99.93
2019-05-21T09:16:57.000Z,99.75
2019-05-21T09:17:57.000Z,99.76
2019-05-21T09:18:57.000Z,100.00
2019-05-21T09:19:58.000Z,100.00
2019-05-21T09:20:57.000Z,99.86
2019-05-21T09:21:57.000Z,99.72
2019-05-21T09:22:58.000Z,99.56
2019-05-21T09:23:57.000Z,99.88
2019-05-21T09:24:57.000Z,100.00
2019-05-21T09:25:57.000Z,100.00
2019-05-21T09:26:57.000Z,100.00
2019-05-21T09:27:57.000Z,100.00
2019-05-21T09:28:57.000Z,100.00
2019-05-21T09:29:57.000Z,100.00
2019-05-21T09:30:57.000Z,100.00
2019-05-21T09:31:57.000Z,100.00
2019-05-21T09:32:57.000Z,100.00
2019-05-21T09:33:57.000Z,99.98
2019-05-21T09:34:57.000Z,100.00
2019-05-21T09:35:57.000Z,100.00
2019-05-21T09:36:57.000Z,100.00
2019-05-21T09:37:57.000Z,100.00
2019-05-21T09:38:57.000Z,100.00
2019-05-21T09:39:57.000Z,100.00
2019-05-21T09:40:57.000Z,100.00
2019-05-21T09:41:57.000Z,100.00
2019-05-21T09:42:57.000Z,100.00
2019-05-21T09:43:57.000Z,100.00
2019-05-21T09:44:57.000Z,99.77
2019-05-21T09:45:58.000Z,100.00
2019-05-21T09:46:58.000Z,99.91
2019-05-21T09:47:58.000Z,99.86
2019-05-21T09:48:58.000Z,100.00
2019-05-21T09:49:58.000Z,99.94
2019-05-21T09:50:58.000Z,99.91
2019-05-21T09:51:58.000Z,100.00
2019-05-21T09:52:58.000Z,100.00
2019-05-21T09:53:58.000Z,100.00
2019-05-21T09:54:58.000Z,100.00
2019-05-21T09:55:58.000Z,100.00
2019-05-21T09:56:58.000Z,100.00
2019-05-21T09:57:58.000Z,99.84
2019-05-21T09:59:08.000Z,99.71
2019-05-21T10:00:08.000Z,99.17
2019-05-21T10:01:03.000Z,99.30
2019-05-21T10:01:58.000Z,99.53
2019-05-21T10:02:58.000Z,99.44
2019-05-21T10:03:58.000Z,99.35
2019-05-21T10:04:58.000Z,99.58
2019-05-21T10:05:58.000Z,99.39
2019-05-21T10:06:58.000Z,99.54
2019-05-21T10:07:58.000Z,99.47
2019-05-21T10:08:58.000Z,99.71
2019-05-21T10:09:58.000Z,99.77
2019-05-21T10:10:58.000Z,99.72
2019-05-21T10:11:58.000Z,99.99
2019-05-21T10:12:58.000Z,100.00
2019-05-21T10:13:58.000Z,99.72
2019-05-21T10:14:58.000Z,99.51
2019-05-21T10:15:58.000Z,99.71
2019-05-21T10:16:58.000Z,99.78
2019-05-21T10:17:58.000Z,99.62
2019-05-21T10:18:58.000Z,99.43
2019-05-21T10:19:58.000Z,99.38
2019-05-21T10:20:58.000Z,99.50
2019-05-21T10:21:58.000Z,100.00
2019-05-21T10:22:58.000Z,99.86
2019-05-21T10:23:58.000Z,99.66
2019-05-21T10:24:59.000Z,99.57
2019-05-21T10:25:58.000Z,99.45
2019-05-21T10:26:58.000Z,99.21
2019-05-21T10:27:58.000Z,99.12
2019-05-21T10:28:58.000Z,99.32
2019-05-21T10:29:58.000Z,99.72
2019-05-21T10:30:58.000Z,99.93
2019-05-21T10:31:58.000Z,99.70
2019-05-21T10:32:58.000Z,99.66
2019-05-21T10:33:58.000Z,99.46
2019-05-21T10:34:58.000Z,99.47
2019-05-21T10:35:58.000Z,99.64
2019-05-21T10:36:58.000Z,99.55
2019-05-21T10:37:58.000Z,99.34
2019-05-21T10:38:58.000Z,99.32
2019-05-21T10:39:58.000Z,99.69
2019-05-21T10:40:58.000Z,99.73
2019-05-21T10:41:58.000Z,99.87
2019-05-21T10:42:58.000Z,99.85
2019-05-21T10:43:58.000Z,99.53
2019-05-21T10:44:58.000Z,99.50
2019-05-21T10:45:58.000Z,99.36
2019-05-21T10:46:58.000Z,99.22
2019-05-21T10:47:58.000Z,99.63
2019-05-21T10:48:58.000Z,100.00
2019-05-21T10:49:58.000Z,99.84
2019-05-21T10:50:58.000Z,99.92
2019-05-21T10:51:58.000Z,99.87
2019-05-21T10:52:58.000Z,100.00
2019-05-21T10:53:58.000Z,100.00
2019-05-21T10:54:58.000Z,100.00
2019-05-21T10:55:58.000Z,100.00
2019-05-21T10:56:58.000Z,100.00
2019-05-21T10:57:58.000Z,100.00
2019-05-21T10:58:58.000Z,100.00
2019-05-21T10:59:58.000Z,100.00
2019-05-21T11:00:58.000Z,99.93
2019-05-21T11:01:58.000Z,99.78
2019-05-21T11:02:58.000Z,99.76
2019-05-21T11:03:58.000Z,99.61
2019-05-21T11:05:28.000Z,99.67
2019-05-21T11:05:58.000Z,99.59
2019-05-21T11:06:58.000Z,99.40
2019-05-21T11:07:58.000Z,99.25
2019-05-21T11:08:58.000Z,99.36
2019-05-21T11:09:58.000Z,99.74
2019-05-21T11:10:58.000Z,99.85
2019-05-21T11:11:58.000Z,99.21
2019-05-21T11:12:58.000Z,99.65
2019-05-21T11:13:58.000Z,99.60
2019-05-21T11:14:58.000Z,99.64
2019-05-21T11:15:58.000Z,99.74
2019-05-21T11:16:58.000Z,99.36
2019-05-21T11:17:58.000Z,99.45
2019-05-21T11:18:58.000Z,99.81
2019-05-21T11:19:58.000Z,99.69
2019-05-21T11:20:58.000Z,99.76
2019-05-21T11:21:58.000Z,100.00
2019-05-21T11:22:58.000Z,99.76
2019-05-21T11:23:58.000Z,99.76
2019-05-21T11:24:58.000Z,99.64
2019-05-21T11:25:58.000Z,99.79
2019-05-21T11:26:58.000Z,99.79
2019-05-21T11:27:58.000Z,99.78
2019-05-21T11:28:58.000Z,99.77
2019-05-21T11:29:58.000Z,99.64
2019-05-21T11:30:58.000Z,99.90
2019-05-21T11:31:58.000Z,99.83
2019-05-21T11:32:58.000Z,99.59
2019-05-21T11:33:58.000Z,99.34
2019-05-21T11:34:58.000Z,99.46
2019-05-21T11:35:58.000Z,99.02
2019-05-21T11:36:58.000Z,99.05
2019-05-21T11:37:58.000Z,99.16
2019-05-21T11:38:58.000Z,99.52
2019-05-21T11:39:58.000Z,99.08
2019-05-21T11:40:58.000Z,99.12
2019-05-21T11:41:58.000Z,98.97
2019-05-21T11:42:58.000Z,98.94
2019-05-21T11:43:58.000Z,99.08
2019-05-21T11:44:58.000Z,99.16
2019-05-21T11:45:58.000Z,99.02
2019-05-21T11:46:58.000Z,98.99
2019-05-21T11:47:58.000Z,99.07
2019-05-21T11:48:58.000Z,99.05
2019-05-21T11:49:58.000Z,98.84
2019-05-21T11:50:58.000Z,98.80
2019-05-21T11:51:58.000Z,98.67
2019-05-21T11:52:58.000Z,98.60
2019-05-21T11:53:58.000Z,99.15
2019-05-21T11:54:58.000Z,98.90
2019-05-21T11:55:58.000Z,98.97
2019-05-21T11:56:58.000Z,98.60
2019-05-21T11:57:58.000Z,98.92
2019-05-21T11:58:58.000Z,98.69
2019-05-21T11:59:58.000Z,98.10
2019-05-21T12:00:58.000Z,98.35
2019-05-21T12:01:58.000Z,98.82
2019-05-21T12:02:58.000Z,98.72
2019-05-21T12:03:58.000Z,98.64
2019-05-21T12:04:58.000Z,98.61
2019-05-21T12:05:58.000Z,98.39
2019-05-21T12:06:58.000Z,98.87
2019-05-21T12:07:58.000Z,99.02
2019-05-21T12:08:58.000Z,98.82
2019-05-21T12:09:58.000Z,98.55
2019-05-21T12:10:58.000Z,98.75
2019-05-21T12:11:58.000Z,99.18
2019-05-21T12:12:58.000Z,98.87
2019-05-21T12:13:58.000Z,98.92
2019-05-21T12:14:58.000Z,98.76
2019-05-21T12:15:58.000Z,98.71
2019-05-21T12:16:58.000Z,98.32
2019-05-21T12:17:58.000Z,98.54
2019-05-21T12:18:58.000Z,98.47
2019-05-21T12:19:58.000Z,98.78
2019-05-21T12:20:58.000Z,99.21
2019-05-21T12:21:58.000Z,98.89
2019-05-21T12:22:58.000Z,99.17
2019-05-21T12:23:58.000Z,99.21
2019-05-21T12:24:58.000Z,99.16
2019-05-21T12:25:58.000Z,99.13
2019-05-21T12:26:58.000Z,98.89
2019-05-21T12:27:58.000Z,98.91
2019-05-21T12:28:58.000Z,98.62
2019-05-21T12:29:58.000Z,98.73
2019-05-21T12:30:58.000Z,98.73
2019-05-21T12:31:58.000Z,98.56
2019-05-21T12:32:58.000Z,98.62
2019-05-21T12:33:58.000Z,98.78
2019-05-21T12:34:58.000Z,99.01
2019-05-21T12:35:58.000Z,98.80
2019-05-21T12:36:58.000Z,99.02
2019-05-21T12:37:58.000Z,99.04
2019-05-21T12:38:58.000Z,98.86
2019-05-21T12:39:58.000Z,98.81
2019-05-21T12:40:58.000Z,99.09
2019-05-21T12:41:58.000Z,99.14
2019-05-21T12:42:58.000Z,98.93
2019-05-21T12:43:58.000Z,98.67
2019-05-21T12:44:58.000Z,98.75
2019-05-21T12:45:58.000Z,99.01
2019-05-21T12:46:58.000Z,98.71
2019-05-21T12:47:58.000Z,98.62
2019-05-21T12:48:57.000Z,98.88
2019-05-21T12:49:57.000Z,99.03